Time;durP1;ratioP1;P1;durP2;ratioP2;P2;SDS_P1;SDS_P2;PMS_P1;PMS_P2;Temp;Humidity;BMP_temperature;BMP_pressure;BME280_temperature;BME280_humidity;BME280_pressure;Samples;Min_cycle;Max_cycle;Signal;HPM_P1;HPM_P2
2021/09/30 00:01:04;;;;;;;19.55;12.98;;;435.20;1689.60;;;;;;4940093;29;20039;-70
2021/09/30 00:03:30;;;;;;;18.10;11.95;;;435.30;1664.00;;;;;;4939250;29;20027;-67
2021/09/30 00:05:56;;;;;;;16.67;10.98;;;435.20;1664.00;;;;;;4939287;29;20541;-70
2021/09/30 00:08:21;;;;;;;22.17;10.88;;;435.20;1664.00;;;;;;4938918;29;20517;-70
2021/09/30 00:10:58;;;;;;;17.92;9.20;;;435.20;1689.60;;;;;;4939215;29;20031;-70
2021/09/30 00:35:23;;;;;;;16.95;5.55;;;410.50;1689.60;;;;;;4938581;29;20047;-69
2021/09/30 00:40:50;;;;;;;7.15;4.95;;;410.50;1689.60;;;;;;4939022;29;20537;-67
2021/09/30 00:46:21;;;;;;;9.40;4.70;;;410.50;1689.60;;;;;;4938846;29;20041;-67
2021/09/30 00:51:58;;;;;;;7.38;4.60;;;410.50;1689.60;;;;;;4842859;29;20057;-70
2021/09/30 00:54:37;;;;;;;9.38;4.78;;;410.50;1689.60;;;;;;4842633;29;20142;-67
2021/09/30 02:58:58;;;;;;;9.00;5.85;;;410.20;1792.00;;;;;;4877898;29;20029;-71
2021/09/30 03:01:27;;;;;;;13.68;6.63;;;410.20;1792.00;;;;;;4877907;29;20033;-70
2021/09/30 03:03:58;;;;;;;12.52;6.05;;;410.20;1792.00;;;;;;4877797;29;20529;-67
2021/09/30 03:06:25;;;;;;;11.48;6.15;;;410.10;1792.00;;;;;;4877733;29;20057;-70
2021/09/30 03:08:54;;;;;;;10.82;6.50;;;410.20;1792.00;;;;;;4877786;29;20098;-67
2021/09/30 03:11:22;;;;;;;7.68;5.82;;;410.20;1792.00;;;;;;4877611;29;20040;-67
2021/09/30 03:13:49;;;;;;;11.40;6.30;;;410.20;1792.00;;;;;;4877740;29;20029;-67
2021/09/30 03:24:30;;;;;;;11.98;6.25;;;410.10;1792.00;;;;;;4822669;29;20065;-67
2021/09/30 03:27:01;;;;;;;10.77;5.70;;;410.10;1792.00;;;;;;4822427;29;20038;-67
2021/09/30 03:29:28;;;;;;;13.98;6.10;;;410.10;1817.60;;;;;;4822414;29;20148;-67
2021/09/30 03:31:57;;;;;;;10.05;6.05;;;410.10;1817.60;;;;;;4822809;29;20492;-67
2021/09/30 03:34:23;;;;;;;11.93;6.20;;;410.10;1817.60;;;;;;4822140;29;20030;-67
2021/09/30 03:36:51;;;;;;;9.93;6.28;;;410.10;1817.60;;;;;;4870277;29;20048;-67
2021/09/30 03:39:23;;;;;;;13.05;6.47;;;410.10;1817.60;;;;;;4881082;29;20154;-70
2021/09/30 03:41:55;;;;;;;10.35;6.30;;;410.10;1843.20;;;;;;4881100;29;20044;-67
2021/09/30 03:44:22;;;;;;;16.60;6.55;;;410.10;1843.20;;;;;;4880978;29;20198;-67
2021/09/30 03:46:52;;;;;;;10.80;6.78;;;410.10;1843.20;;;;;;4880849;29;20480;-71
2021/09/30 03:49:33;;;;;;;11.02;6.25;;;410.10;1843.20;;;;;;4880706;29;20037;-70
2021/09/30 04:00:14;;;;;;;11.20;6.63;;;410.30;1817.60;;;;;;4881011;29;20415;-70
2021/09/30 04:02:40;;;;;;;9.93;5.88;;;410.20;1817.60;;;;;;4880678;29;20169;-67
2021/09/30 04:05:06;;;;;;;10.95;6.15;;;410.30;1817.60;;;;;;4880648;29;20120;-67
2021/09/30 04:07:32;;;;;;;11.95;6.38;;;410.30;1817.60;;;;;;4880645;29;20037;-68
2021/09/30 04:10:00;;;;;;;9.13;6.25;;;410.30;1817.60;;;;;;4880406;29;20040;-71
2021/09/30 04:12:26;;;;;;;7.38;5.43;;;410.30;1817.60;;;;;;4880557;29;20081;-67
2021/09/30 04:14:52;;;;;;;11.15;5.80;;;410.30;1817.60;;;;;;4880528;29;20025;-70
2021/09/30 04:17:18;;;;;;;12.30;6.05;;;410.30;1817.60;;;;;;4880354;29;20060;-67
2021/09/30 04:19:43;;;;;;;9.45;5.63;;;410.30;1817.60;;;;;;4880134;29;20037;-66
2021/09/30 04:22:12;;;;;;;14.63;6.45;;;410.40;1817.60;;;;;;4880764;29;20120;-68
2021/09/30 04:24:41;;;;;;;13.02;5.95;;;410.40;1817.60;;;;;;4880482;29;20051;-69
2021/09/30 04:27:07;;;;;;;10.57;6.18;;;410.40;1792.00;;;;;;4880179;29;20033;-70
2021/09/30 04:29:32;;;;;;;13.68;6.55;;;410.40;1817.60;;;;;;4880181;29;20453;-71
2021/09/30 04:32:00;;;;;;;15.50;6.55;;;410.40;1792.00;;;;;;4922353;29;20442;-71
2021/09/30 04:34:26;;;;;;;12.05;6.93;;;410.40;1792.00;;;;;;4938439;29;20371;-67
2021/09/30 04:36:52;;;;;;;11.02;6.53;;;410.50;1792.00;;;;;;4938444;29;20107;-68
2021/09/30 04:39:18;;;;;;;12.57;6.03;;;410.40;1792.00;;;;;;4938391;29;20125;-71
2021/09/30 04:41:44;;;;;;;12.32;5.93;;;410.50;1792.00;;;;;;4938815;29;20096;-71
2021/09/30 04:44:14;;;;;;;8.32;6.10;;;410.50;1792.00;;;;;;4938482;29;20103;-67
2021/09/30 04:46:40;;;;;;;13.40;6.05;;;410.50;1792.00;;;;;;4938191;29;20039;-67
2021/09/30 04:49:06;;;;;;;9.23;5.80;;;410.50;1792.00;;;;;;4938446;29;20040;-71
2021/09/30 04:51:34;;;;;;;8.82;5.72;;;410.50;1792.00;;;;;;4938486;29;20025;-70
2021/09/30 04:54:02;;;;;;;12.30;6.03;;;410.50;1792.00;;;;;;4938340;29;20036;-70
2021/09/30 04:56:29;;;;;;;12.07;5.97;;;410.50;1792.00;;;;;;4938694;29;20023;-71
2021/09/30 04:58:59;;;;;;;11.27;6.47;;;410.50;1792.00;;;;;;4938449;29;20020;-67
2021/09/30 05:01:25;;;;;;;13.75;7.10;;;435.20;1792.00;;;;;;4938002;29;20027;-70
2021/09/30 05:03:50;;;;;;;13.98;6.38;;;435.20;1792.00;;;;;;4920639;29;20039;-71
2021/09/30 05:06:16;;;;;;;19.05;6.53;;;435.20;1792.00;;;;;;4938045;29;20024;-71
2021/09/30 05:08:44;;;;;;;15.90;5.90;;;435.20;1792.00;;;;;;4937949;29;20040;-71
2021/09/30 05:11:12;;;;;;;12.55;6.25;;;410.50;1792.00;;;;;;4938226;29;20016;-68
2021/09/30 05:13:40;;;;;;;10.73;6.28;;;410.50;1792.00;;;;;;4938200;29;20035;-67
2021/09/30 05:16:08;;;;;;;12.63;6.97;;;435.20;1817.60;;;;;;4937980;29;20024;-70
2021/09/30 05:18:35;;;;;;;12.98;7.20;;;410.50;1792.00;;;;;;4938021;29;20020;-67
2021/09/30 05:21:04;;;;;;;13.43;6.85;;;435.20;1792.00;;;;;;4937818;29;20044;-67
2021/09/30 05:23:35;;;;;;;14.70;7.20;;;435.20;1792.00;;;;;;4937760;29;20090;-67
2021/09/30 05:26:02;;;;;;;13.20;6.70;;;410.50;1792.00;;;;;;4937852;29;20035;-71
2021/09/30 05:28:27;;;;;;;11.68;6.47;;;435.20;1792.00;;;;;;4937982;29;20367;-70
2021/09/30 05:30:53;;;;;;;17.52;7.05;;;435.20;1792.00;;;;;;4937824;29;20034;-70
2021/09/30 05:33:20;;;;;;;10.00;6.68;;;410.50;1792.00;;;;;;4937398;29;20059;-71
2021/09/30 05:35:46;;;;;;;14.70;6.38;;;410.50;1792.00;;;;;;4937209;29;20031;-69
2021/09/30 05:38:12;;;;;;;9.65;5.97;;;435.20;1792.00;;;;;;4937482;29;20467;-68
2021/09/30 05:40:38;;;;;;;11.10;6.45;;;410.50;1792.00;;;;;;4937321;29;20478;-70
2021/09/30 05:43:07;;;;;;;10.60;6.45;;;435.20;1792.00;;;;;;4937480;29;20036;-66
2021/09/30 05:45:41;;;;;;;12.95;6.53;;;435.20;1792.00;;;;;;4937194;29;20024;-66
2021/09/30 05:48:07;;;;;;;;;;;435.20;1817.60;;;;;;4934304;29;20138;-66
2021/09/30 05:50:33;;;;;;;11.73;6.40;;;435.20;1817.60;;;;;;4935719;29;20365;-66
2021/09/30 05:52:59;;;;;;;14.32;6.97;;;435.20;1817.60;;;;;;4936011;29;20039;-66
2021/09/30 05:55:25;;;;;;;10.77;6.50;;;410.50;1817.60;;;;;;4936308;29;20023;-66
2021/09/30 05:57:50;;;;;;;15.85;6.78;;;435.20;1817.60;;;;;;4936360;29;20035;-66
2021/09/30 06:13:33;;;;;;;13.43;6.95;;;435.30;1817.60;;;;;;4936300;29;20059;-67
2021/09/30 06:16:04;;;;;;;11.45;6.53;;;435.30;1817.60;;;;;;4935753;29;20028;-66
2021/09/30 06:18:30;;;;;;;20.08;7.45;;;435.30;1817.60;;;;;;4936125;29;20059;-66
2021/09/30 06:20:55;;;;;;;16.30;8.35;;;435.30;1817.60;;;;;;4935946;29;20496;-66
2021/09/30 06:23:21;;;;;;;14.50;8.57;;;435.30;1817.60;;;;;;4935677;29;20024;-67
2021/09/30 06:25:47;;;;;;;14.00;8.85;;;435.30;1817.60;;;;;;4935913;29;20032;-67
2021/09/30 06:28:13;;;;;;;16.67;8.93;;;435.40;1817.60;;;;;;4935837;29;20039;-66
2021/09/30 06:30:38;;;;;;;17.80;10.73;;;435.40;1817.60;;;;;;4935995;29;20055;-69
2021/09/30 06:33:04;;;;;;;29.63;11.68;;;435.40;1792.00;;;;;;4935701;29;20035;-68
2021/09/30 06:35:30;;;;;;;24.85;10.02;;;435.40;1817.60;;;;;;4935836;29;20477;-68
2021/09/30 06:37:56;;;;;;;16.17;9.18;;;435.40;1817.60;;;;;;4935526;29;20135;-68
2021/09/30 06:40:21;;;;;;;22.20;9.68;;;435.40;1792.00;;;;;;4935442;29;20159;-68
2021/09/30 06:42:47;;;;;;;19.65;9.55;;;435.40;1792.00;;;;;;4936256;29;20448;-68
2021/09/30 06:45:14;;;;;;;22.48;8.57;;;435.50;1792.00;;;;;;4936394;29;20020;-68
2021/09/30 06:47:40;;;;;;;16.48;8.93;;;435.60;1792.00;;;;;;4936452;29;20054;-68
2021/09/30 06:50:09;;;;;;;15.65;8.80;;;435.60;1766.40;;;;;;4936277;29;20371;-68
2021/09/30 06:52:35;;;;;;;25.98;9.90;;;435.60;1792.00;;;;;;4936770;29;20024;-68
2021/09/30 06:55:01;;;;;;;18.90;8.35;;;435.60;1766.40;;;;;;4936585;29;20024;-68
2021/09/30 06:57:28;;;;;;;25.52;8.43;;;435.60;1766.40;;;;;;4936620;29;20462;-68
2021/09/30 07:00:05;;;;;;;12.82;7.50;;;435.70;1766.40;;;;;;4936529;29;20032;-68
2021/09/30 07:02:32;;;;;;;17.23;7.65;;;435.70;1766.40;;;;;;4936561;29;20058;-68
2021/09/30 07:04:58;;;;;;;12.10;7.57;;;435.70;1766.40;;;;;;4918526;29;20059;-68
2021/09/30 07:07:24;;;;;;;11.88;7.57;;;435.70;1766.40;;;;;;4936350;29;20498;-68
2021/09/30 07:09:50;;;;;;;11.77;7.85;;;435.70;1740.80;;;;;;4936761;29;20027;-68
2021/09/30 07:12:15;;;;;;;16.50;9.07;;;435.70;1766.40;;;;;;4940310;29;20032;-68
2021/09/30 07:14:41;;;;;;;53.28;36.22;;;435.80;1766.40;;;;;;4939965;29;20051;-68
2021/09/30 07:17:07;;;;;;;45.15;35.50;;;435.80;1766.40;;;;;;4940197;29;20020;-68
2021/09/30 07:19:35;;;;;;;25.10;18.98;;;435.80;1740.80;;;;;;4940176;29;20087;-68
2021/09/30 07:22:03;;;;;;;17.92;11.35;;;435.90;1740.80;;;;;;4939840;29;20032;-68
2021/09/30 07:24:29;;;;;;;13.05;9.32;;;435.90;1740.80;;;;;;4940215;29;20054;-68
2021/09/30 07:26:55;;;;;;;18.30;10.75;;;435.90;1740.80;;;;;;4940162;29;20490;-68
2021/09/30 07:29:21;;;;;;;15.27;9.45;;;435.90;1740.80;;;;;;4922864;29;20046;-68
2021/09/30 07:31:46;;;;;;;17.63;7.93;;;436.00;1715.20;;;;;;4939718;29;20028;-68
2021/09/30 07:34:12;;;;;;;15.57;7.95;;;436.00;1715.20;;;;;;4939829;29;20462;-68
2021/09/30 07:36:43;;;;;;;14.10;7.22;;;436.00;1715.20;;;;;;4939693;29;20059;-68
2021/09/30 07:39:10;;;;;;;12.20;7.40;;;436.00;1715.20;;;;;;4940070;29;20027;-68
2021/09/30 07:41:37;;;;;;;16.17;7.72;;;436.00;1689.60;;;;;;4939715;29;20028;-68
2021/09/30 07:44:04;;;;;;;12.45;7.45;;;436.10;1689.60;;;;;;4939797;29;20031;-68
2021/09/30 07:46:34;;;;;;;13.07;8.18;;;460.80;1715.20;;;;;;4939798;29;20031;-68
2021/09/30 07:49:03;;;;;;;16.80;8.07;;;460.80;1740.80;;;;;;4939643;29;20039;-68
2021/09/30 07:51:29;;;;;;;10.75;7.60;;;460.80;1715.20;;;;;;4939310;29;20020;-68
2021/09/30 07:53:54;;;;;;;16.85;8.30;;;460.80;1715.20;;;;;;4939109;29;20028;-68
2021/09/30 07:56:22;;;;;;;12.45;7.60;;;460.90;1715.20;;;;;;4939664;29;20111;-68
2021/09/30 07:58:48;;;;;;;15.93;7.35;;;460.90;1715.20;;;;;;4939476;29;20083;-68
2021/09/30 08:01:13;;;;;;;11.88;6.65;;;460.90;1715.20;;;;;;4939177;29;20028;-68
2021/09/30 08:03:39;;;;;;;11.10;7.18;;;460.90;1689.60;;;;;;4939524;29;20031;-68
2021/09/30 08:06:05;;;;;;;14.38;6.60;;;461.00;1689.60;;;;;;4939261;29;20024;-68
2021/09/30 08:08:31;;;;;;;14.60;6.75;;;461.00;1689.60;;;;;;4939288;29;20485;-68
2021/09/30 08:10:57;;;;;;;18.10;7.22;;;461.00;1689.60;;;;;;4939328;29;20024;-68
2021/09/30 08:13:22;;;;;;;9.93;6.90;;;461.10;1689.60;;;;;;4939172;29;20032;-68
2021/09/30 08:15:48;;;;;;;13.02;6.97;;;461.10;1689.60;;;;;;4939152;29;20032;-68
2021/09/30 08:18:14;;;;;;;11.00;6.97;;;461.10;1689.60;;;;;;4939049;29;20043;-68
2021/09/30 08:20:42;;;;;;;10.57;7.47;;;461.10;1689.60;;;;;;4939000;29;20103;-68
2021/09/30 08:23:13;;;;;;;9.63;6.25;;;461.10;1664.00;;;;;;4938419;29;20381;-68
2021/09/30 08:25:40;;;;;;;8.50;6.68;;;461.10;1664.00;;;;;;4939015;29;20035;-68
2021/09/30 08:28:07;;;;;;;15.32;6.90;;;461.10;1664.00;;;;;;4938581;29;20070;-68
2021/09/30 08:30:33;;;;;;;10.57;6.32;;;461.10;1664.00;;;;;;4938856;29;20020;-68
2021/09/30 08:32:59;;;;;;;8.10;6.03;;;461.10;1664.00;;;;;;4938920;29;20051;-68
2021/09/30 08:35:25;;;;;;;11.10;6.25;;;461.20;1664.00;;;;;;4938668;29;20470;-68
2021/09/30 08:37:50;;;;;;;10.70;6.15;;;461.20;1664.00;;;;;;4938218;29;20091;-68
2021/09/30 08:40:16;;;;;;;12.43;6.22;;;461.20;1664.00;;;;;;4938770;29;20031;-68
2021/09/30 08:42:47;;;;;;;11.20;6.22;;;461.20;1664.00;;;;;;4921462;29;20043;-68
2021/09/30 08:45:14;;;;;;;13.88;7.45;;;461.20;1638.40;;;;;;4938383;29;20118;-68
2021/09/30 08:47:44;;;;;;;13.15;7.07;;;461.20;1638.40;;;;;;4938394;29;20027;-68
2021/09/30 08:50:10;;;;;;;11.15;6.05;;;461.20;1638.40;;;;;;4938500;29;20031;-68
2021/09/30 08:52:40;;;;;;;8.45;6.13;;;461.20;1664.00;;;;;;4921156;29;20042;-68
2021/09/30 08:55:06;;;;;;;15.15;6.13;;;461.20;1664.00;;;;;;4938593;29;20028;-68
2021/09/30 08:57:32;;;;;;;9.93;5.88;;;461.20;1664.00;;;;;;4938335;29;20024;-68
2021/09/30 09:00:06;;;;;;;14.10;6.53;;;461.20;1664.00;;;;;;4938168;29;20474;-68
2021/09/30 09:02:44;;;;;;;9.55;6.25;;;461.20;1638.40;;;;;;4938233;29;20031;-68
2021/09/30 09:05:10;;;;;;;10.60;5.05;;;461.20;1638.40;;;;;;4938004;29;20033;-68
2021/09/30 09:07:36;;;;;;;9.50;5.97;;;461.20;1638.40;;;;;;4938116;29;20042;-68
2021/09/30 09:10:10;;;;;;;11.68;6.97;;;461.20;1664.00;;;;;;4937862;29;20023;-68
2021/09/30 09:12:37;;;;;;;11.88;7.35;;;461.30;1664.00;;;;;;4937984;29;20499;-68
2021/09/30 09:15:04;;;;;;;28.48;8.70;;;461.30;1664.00;;;;;;4938054;29;20036;-68
2021/09/30 09:17:30;;;;;;;13.20;6.95;;;461.30;1664.00;;;;;;4937945;29;20487;-68
2021/09/30 09:19:59;;;;;;;12.07;6.35;;;461.30;1638.40;;;;;;4937902;29;20020;-68
2021/09/30 09:22:33;;;;;;;11.55;6.57;;;461.30;1612.80;;;;;;4937853;29;20082;-68
2021/09/30 09:25:05;;;;;;;12.32;7.25;;;461.30;1612.80;;;;;;4937776;29;20031;-68
2021/09/30 09:27:58;;;;;;;11.57;6.05;;;461.30;1612.80;;;;;;4937545;29;20040;-68
2021/09/30 09:30:39;;;;;;;12.15;6.97;;;461.30;1612.80;;;;;;4937852;29;20031;-68
2021/09/30 09:33:16;;;;;;;13.27;6.55;;;461.30;1612.80;;;;;;4937342;29;20031;-68
2021/09/30 09:35:51;;;;;;;9.00;6.00;;;461.30;1612.80;;;;;;4937229;29;20055;-68
2021/09/30 09:38:18;;;;;;;12.77;5.75;;;461.40;1612.80;;;;;;4937480;29;20394;-68
2021/09/30 09:40:44;;;;;;;7.07;5.47;;;461.30;1612.80;;;;;;4920485;29;20051;-68
2021/09/30 09:43:43;;;;;;;9.07;6.82;;;461.40;1612.80;;;;;;4937530;29;20145;-68
2021/09/30 09:46:11;;;;;;;15.05;6.13;;;461.50;1612.80;;;;;;4937442;29;20352;-68
2021/09/30 09:48:38;;;;;;;12.40;6.80;;;461.50;1612.80;;;;;;4937226;29;20110;-68
2021/09/30 09:51:12;;;;;;;11.23;6.57;;;461.50;1587.20;;;;;;4937367;29;20103;-68
2021/09/30 09:53:39;;;;;;;11.38;5.85;;;461.50;1612.80;;;;;;4919683;29;20372;-67
2021/09/30 09:56:12;;;;;;;16.27;5.57;;;461.50;1587.20;;;;;;4914890;29;20548;-67
2021/09/30 09:59:04;;;;;;;9.90;5.68;;;461.60;1587.20;;;;;;4930120;29;20035;-67
2021/09/30 10:01:42;;;;;;;11.52;5.78;;;461.60;1587.20;;;;;;4933539;29;20458;-68
2021/09/30 10:04:09;;;;;;;9.80;5.68;;;461.60;1587.20;;;;;;4931802;29;20087;-67
2021/09/30 10:06:36;;;;;;;15.50;6.10;;;461.70;1587.20;;;;;;4936081;29;20378;-68
2021/09/30 10:09:05;;;;;;;12.88;5.80;;;461.70;1587.20;;;;;;4936929;29;20120;-68
2021/09/30 10:11:31;;;;;;;15.55;5.47;;;461.70;1561.60;;;;;;4937117;29;20350;-68
2021/09/30 10:13:59;;;;;;;14.05;5.57;;;486.40;1561.60;;;;;;4937642;29;20052;-68
2021/09/30 10:16:26;;;;;;;23.50;6.30;;;486.40;1561.60;;;;;;4937036;29;20028;-68
2021/09/30 10:18:57;;;;;;;12.32;5.43;;;486.40;1561.60;;;;;;4937001;29;20054;-68
2021/09/30 10:21:24;;;;;;;17.33;8.20;;;486.40;1561.60;;;;;;4936785;29;20024;-68
2021/09/30 10:24:18;;;;;;;12.55;7.78;;;486.50;1561.60;;;;;;4936920;29;20087;-68
2021/09/30 10:26:55;;;;;;;13.30;6.78;;;486.50;1561.60;;;;;;4934011;29;20474;-68
2021/09/30 10:29:46;;;;;;;11.55;6.80;;;486.50;1561.60;;;;;;4936511;29;20044;-68
2021/09/30 10:32:15;;;;;;;14.10;6.32;;;486.50;1561.60;;;;;;4936462;29;20038;-67
2021/09/30 10:34:45;;;;;;;16.02;7.03;;;486.50;1561.60;;;;;;4936644;29;20032;-67
2021/09/30 10:37:20;;;;;;;12.40;5.82;;;486.50;1561.60;;;;;;4936284;29;20062;-67
2021/09/30 10:40:06;;;;;;;12.73;5.82;;;486.60;1561.60;;;;;;4936566;29;20020;-68
2021/09/30 10:42:56;;;;;;;16.00;5.80;;;486.60;1536.00;;;;;;4935608;29;20038;-68
2021/09/30 10:45:38;;;;;;;9.15;5.22;;;486.60;1536.00;;;;;;4859070;29;20042;-68
2021/09/30 10:48:30;;;;;;;13.27;5.40;;;486.70;1561.60;;;;;;4859265;29;20045;-67
2021/09/30 10:51:12;;;;;;;12.73;5.38;;;486.80;1536.00;;;;;;4786313;30;20115;-67
2021/09/30 10:53:47;;;;;;;13.80;5.55;;;486.80;1536.00;;;;;;4786619;30;20050;-68
2021/09/30 10:56:39;;;;;;;12.18;6.00;;;486.80;1510.40;;;;;;4786487;30;20062;-67
2021/09/30 10:59:08;;;;;;;18.77;5.63;;;486.90;1510.40;;;;;;4768888;30;20048;-67
2021/09/30 11:01:45;;;;;;;18.27;5.95;;;486.90;1510.40;;;;;;4767350;30;20422;-66
2021/09/30 11:04:11;;;;;;;19.67;6.07;;;487.00;1510.40;;;;;;4765701;30;20533;-67
2021/09/30 11:06:37;;;;;;;15.35;5.75;;;487.00;1510.40;;;;;;4765147;30;20035;-67
2021/09/30 11:09:29;;;;;;;18.38;6.15;;;487.10;1484.80;;;;;;4749233;30;20048;-67
2021/09/30 11:12:12;;;;;;;14.40;6.50;;;487.10;1510.40;;;;;;4747578;30;20119;-67
2021/09/30 11:14:56;;;;;;;14.05;5.43;;;487.10;1484.80;;;;;;4749300;30;20060;-67
2021/09/30 11:17:39;;;;;;;15.73;5.40;;;487.20;1459.20;;;;;;4749331;30;20036;-67
2021/09/30 11:20:29;;;;;;;16.98;6.03;;;487.30;1459.20;;;;;;4734220;30;20039;-67
2021/09/30 11:22:55;;;;;;;14.23;5.80;;;512.00;1433.60;;;;;;4761965;30;20040;-67
2021/09/30 11:25:20;;;;;;;10.60;4.97;;;512.00;1433.60;;;;;;4766997;30;20388;-67
2021/09/30 11:27:46;;;;;;;15.73;5.88;;;512.00;1459.20;;;;;;4796692;29;20134;-67
2021/09/30 11:30:18;;;;;;;15.18;6.38;;;512.00;1459.20;;;;;;4823339;29;20045;-67
2021/09/30 11:32:44;;;;;;;9.27;5.45;;;512.10;1459.20;;;;;;4837291;29;20079;-67
2021/09/30 11:35:10;;;;;;;11.70;5.35;;;512.10;1459.20;;;;;;4849880;29;20111;-67
2021/09/30 11:37:42;;;;;;;17.17;5.93;;;512.10;1459.20;;;;;;4915561;29;20055;-67
2021/09/30 11:40:11;;;;;;;10.63;5.70;;;512.10;1433.60;;;;;;4915915;29;20040;-67
2021/09/30 11:42:45;;;;;;;10.90;5.13;;;512.20;1408.00;;;;;;4915396;29;20028;-67
2021/09/30 11:45:13;;;;;;;18.80;5.70;;;512.30;1433.60;;;;;;4919377;29;20024;-67
2021/09/30 11:47:41;;;;;;;8.88;6.00;;;512.30;1433.60;;;;;;4934310;29;20087;-67
2021/09/30 11:50:14;;;;;;;19.27;6.60;;;512.30;1433.60;;;;;;4934312;29;20036;-66
2021/09/30 11:52:41;;;;;;;20.50;7.78;;;512.30;1408.00;;;;;;4934339;29;20020;-68
2021/09/30 11:55:14;;;;;;;20.10;8.32;;;512.30;1408.00;;;;;;4934342;29;20035;-67
2021/09/30 11:57:51;;;;;;;15.77;7.13;;;512.40;1408.00;;;;;;4935927;29;20156;-67
2021/09/30 12:00:17;;;;;;;23.65;8.10;;;512.40;1408.00;;;;;;4937672;29;20027;-67
2021/09/30 12:02:58;;;;;;;18.70;7.00;;;512.40;1433.60;;;;;;4932802;29;20023;-67
2021/09/30 12:05:28;;;;;;;19.50;7.45;;;512.40;1433.60;;;;;;4932631;29;20024;-67
2021/09/30 12:07:54;;;;;;;20.63;6.40;;;512.40;1433.60;;;;;;4937511;29;20031;-67
2021/09/30 12:10:20;;;;;;;21.80;7.00;;;512.40;1408.00;;;;;;4937440;29;20047;-67
2021/09/30 12:12:46;;;;;;;16.17;7.63;;;512.40;1433.60;;;;;;4937542;29;20058;-67
2021/09/30 12:15:12;;;;;;;20.70;8.57;;;512.40;1408.00;;;;;;4937314;29;20167;-67
2021/09/30 12:17:39;;;;;;;17.42;8.73;;;512.50;1408.00;;;;;;4937355;29;20039;-67
2021/09/30 12:20:08;;;;;;;16.55;8.32;;;512.50;1382.40;;;;;;4937216;29;20024;-66
2021/09/30 12:22:35;;;;;;;21.25;8.75;;;512.50;1408.00;;;;;;4937375;29;20060;-66
2021/09/30 12:25:11;;;;;;;22.88;9.18;;;512.60;1382.40;;;;;;4937126;29;20421;-66
2021/09/30 12:27:40;;;;;;;17.85;9.88;;;512.60;1382.40;;;;;;4936472;29;20035;-66
2021/09/30 12:30:07;;;;;;;17.20;9.50;;;512.60;1382.40;;;;;;4937418;29;20036;-67
2021/09/30 12:32:35;;;;;;;15.45;8.38;;;512.60;1382.40;;;;;;4931605;29;20028;-66
2021/09/30 12:35:05;;;;;;;16.80;8.02;;;512.70;1382.40;;;;;;4937404;29;20079;-66
2021/09/30 12:37:37;;;;;;;18.35;7.65;;;512.70;1382.40;;;;;;4932817;29;20062;-67
2021/09/30 12:40:12;;;;;;;18.15;7.35;;;512.70;1382.40;;;;;;4936882;29;20069;-67
2021/09/30 12:42:49;;;;;;;17.80;8.52;;;512.60;1356.80;;;;;;4935500;29;20029;-67
2021/09/30 12:45:16;;;;;;;17.20;7.88;;;512.70;1356.80;;;;;;4933709;29;20042;-67
2021/09/30 12:47:42;;;;;;;27.98;7.93;;;512.70;1356.80;;;;;;4937157;29;20036;-69
2021/09/30 12:50:16;;;;;;;16.35;7.18;;;512.70;1356.80;;;;;;4931407;29;20386;-69
2021/09/30 12:52:43;;;;;;;20.98;7.03;;;512.70;1356.80;;;;;;4936894;29;20028;-68
2021/09/30 12:55:21;;;;;;;21.48;8.60;;;512.70;1356.80;;;;;;4932087;29;20082;-67
2021/09/30 12:57:47;;;;;;;22.13;7.38;;;512.70;1356.80;;;;;;4936722;29;20049;-67
2021/09/30 13:00:18;;;;;;;18.38;7.28;;;512.70;1356.80;;;;;;4936674;29;20030;-68
2021/09/30 13:02:46;;;;;;;16.65;7.80;;;512.70;1356.80;;;;;;4936497;29;20028;-68
2021/09/30 13:05:12;;;;;;;17.45;8.00;;;512.70;1356.80;;;;;;4936704;29;20119;-68
2021/09/30 13:07:55;;;;;;;16.30;7.90;;;512.60;1356.80;;;;;;4935892;29;20135;-67
2021/09/30 13:10:32;;;;;;;17.90;7.20;;;512.60;1356.80;;;;;;4937749;29;20091;-67
2021/09/30 13:13:15;;;;;;;17.30;7.07;;;512.60;1382.40;;;;;;4937897;29;20057;-70
2021/09/30 13:15:44;;;;;;;28.85;8.10;;;512.60;1382.40;;;;;;4938213;29;20122;-69
2021/09/30 13:18:13;;;;;;;35.50;9.02;;;512.60;1382.40;;;;;;4937977;29;20111;-67
2021/09/30 13:20:41;;;;;;;39.90;18.65;;;512.60;1382.40;;;;;;4937986;29;20028;-69
2021/09/30 13:23:09;;;;;;;51.83;23.80;;;512.60;1382.40;;;;;;4937845;29;20091;-69
2021/09/30 13:25:35;;;;;;;27.05;11.55;;;512.50;1382.40;;;;;;4937706;29;20043;-67
2021/09/30 13:28:01;;;;;;;25.60;11.18;;;512.50;1382.40;;;;;;4937754;29;20103;-69
2021/09/30 13:30:33;;;;;;;25.30;9.27;;;512.50;1382.40;;;;;;4919930;29;20435;-70
2021/09/30 13:33:01;;;;;;;21.83;9.20;;;512.50;1408.00;;;;;;4937479;29;20036;-67
2021/09/30 13:35:30;;;;;;;18.15;7.43;;;512.50;1408.00;;;;;;4937135;29;20032;-69
2021/09/30 13:37:57;;;;;;;24.73;8.82;;;512.40;1408.00;;;;;;4937253;29;20044;-69
2021/09/30 13:40:25;;;;;;;23.50;8.77;;;512.40;1408.00;;;;;;4937468;29;20457;-69
2021/09/30 13:42:51;;;;;;;15.43;7.43;;;512.40;1408.00;;;;;;4937574;29;20468;-67
2021/09/30 13:45:19;;;;;;;17.40;8.65;;;512.40;1408.00;;;;;;4937525;29;20055;-69
2021/09/30 13:47:44;;;;;;;27.48;7.88;;;512.30;1408.00;;;;;;4937068;29;20090;-68
2021/09/30 13:50:22;;;;;;;26.73;9.32;;;512.30;1433.60;;;;;;4936811;29;20039;-67
2021/09/30 13:52:51;;;;;;;29.20;8.65;;;512.30;1433.60;;;;;;4927333;29;20028;-67
2021/09/30 13:55:17;;;;;;;23.00;7.55;;;512.30;1433.60;;;;;;4917457;29;20074;-69
2021/09/30 13:57:44;;;;;;;39.45;8.98;;;512.30;1433.60;;;;;;4918091;29;20355;-67
2021/09/30 14:00:13;;;;;;;20.88;7.63;;;512.20;1408.00;;;;;;4918240;29;20068;-67
2021/09/30 14:02:40;;;;;;;26.63;10.05;;;512.20;1433.60;;;;;;4918107;29;20375;-67
2021/09/30 14:05:08;;;;;;;22.23;9.32;;;512.10;1433.60;;;;;;4918151;29;20028;-67
2021/09/30 14:07:40;;;;;;;17.42;8.82;;;512.10;1433.60;;;;;;4918100;29;20036;-67
2021/09/30 14:10:11;;;;;;;27.95;10.68;;;512.10;1433.60;;;;;;4917851;29;20111;-67
2021/09/30 14:12:37;;;;;;;25.15;10.48;;;512.10;1433.60;;;;;;4918016;29;20024;-67
2021/09/30 14:15:04;;;;;;;35.60;10.07;;;512.10;1433.60;;;;;;4917835;29;20534;-67
2021/09/30 14:17:29;;;;;;;23.20;10.00;;;512.10;1433.60;;;;;;4917895;29;20028;-67
2021/09/30 14:19:55;;;;;;;23.13;8.75;;;512.10;1433.60;;;;;;4917381;29;20035;-67
2021/09/30 14:22:21;;;;;;;24.67;8.70;;;512.00;1433.60;;;;;;4917713;29;20502;-67
2021/09/30 14:24:47;;;;;;;30.73;10.02;;;512.10;1433.60;;;;;;4917861;29;20470;-67
2021/09/30 14:27:12;;;;;;;17.55;7.85;;;512.00;1433.60;;;;;;4917662;29;20034;-67
2021/09/30 14:29:41;;;;;;;17.88;9.27;;;512.00;1433.60;;;;;;4917321;29;20111;-67
2021/09/30 14:32:09;;;;;;;25.48;9.15;;;512.00;1433.60;;;;;;4917140;29;20546;-67
2021/09/30 14:34:35;;;;;;;22.05;7.85;;;512.00;1484.80;;;;;;4917550;29;20028;-70
2021/09/30 14:37:00;;;;;;;24.23;7.65;;;512.00;1459.20;;;;;;4918211;29;20052;-66
2021/09/30 14:39:26;;;;;;;54.08;11.82;;;512.00;1484.80;;;;;;4931765;29;20024;-65
2021/09/30 14:41:52;;;;;;;80.70;14.52;;;512.00;1459.20;;;;;;4932975;29;20054;-63
2021/09/30 14:44:21;;;;;;;50.83;10.80;;;512.00;1459.20;;;;;;4933686;29;20548;-72
2021/09/30 14:46:47;;;;;;;53.03;11.10;;;512.00;1459.20;;;;;;4933463;29;20027;-69
2021/09/30 14:49:13;;;;;;;62.30;13.25;;;512.00;1459.20;;;;;;4933584;29;20035;-71
2021/09/30 14:51:44;;;;;;;34.92;8.82;;;512.00;1459.20;;;;;;4932915;29;20026;-73
2021/09/30 14:54:09;;;;;;;26.67;9.07;;;512.00;1459.20;;;;;;4933239;29;20066;-69
2021/09/30 14:56:35;;;;;;;14.20;8.32;;;512.00;1484.80;;;;;;4933779;29;20047;-70
2021/09/30 14:59:01;;;;;;;19.30;7.20;;;512.00;1484.80;;;;;;4932444;29;20028;-70
2021/09/30 15:01:26;;;;;;;16.23;7.13;;;487.30;1484.80;;;;;;4932768;29;20023;-70
2021/09/30 15:03:52;;;;;;;14.85;6.07;;;487.30;1510.40;;;;;;4932423;29;20509;-69
2021/09/30 15:06:18;;;;;;;12.70;5.40;;;487.30;1510.40;;;;;;4933066;29;20020;-69
2021/09/30 15:08:44;;;;;;;12.73;5.93;;;487.30;1510.40;;;;;;4930664;29;20039;-69
2021/09/30 15:11:10;;;;;;;11.27;5.40;;;487.20;1510.40;;;;;;4914512;29;20032;-68
2021/09/30 15:13:36;;;;;;;19.92;5.65;;;487.20;1510.40;;;;;;4931679;29;20031;-71
2021/09/30 15:16:06;;;;;;;24.67;6.53;;;487.20;1536.00;;;;;;4927427;29;20414;-68
2021/09/30 15:21:21;;;;;;;15.63;6.40;;;487.20;1536.00;;;;;;4929472;29;20618;-69
2021/09/30 15:23:56;;;;;;;10.07;5.78;;;487.20;1536.00;;;;;;4927674;29;20032;-69